sensor_id;sensor_type;location;lat;lon;timestamp;temperature;humidity
47090;DHT22;32840;52.516;13.294;2023-07-16T00:00:36;25.40;96.60
47090;DHT22;32840;52.516;13.294;2023-07-16T00:03:22;25.20;97.00
47090;DHT22;32840;52.516;13.294;2023-07-16T00:06:08;25.00;97.40
47090;DHT22;32840;52.516;13.294;2023-07-16T00:08:53;25.00;97.30
47090;DHT22;32840;52.516;13.294;2023-07-16T00:11:38;25.20;97.70
47090;DHT22;32840;52.516;13.294;2023-07-16T00:14:24;25.20;97.30
47090;DHT22;32840;52.516;13.294;2023-07-16T00:17:09;25.30;97.10
47090;DHT22;32840;52.516;13.294;2023-07-16T00:19:54;25.20;97.30
47090;DHT22;32840;52.516;13.294;2023-07-16T00:22:39;25.20;97.40
47090;DHT22;32840;52.516;13.294;2023-07-16T00:25:23;25.20;97.80
47090;DHT22;32840;52.516;13.294;2023-07-16T00:28:13;25.20;97.90
47090;DHT22;32840;52.516;13.294;2023-07-16T00:30:58;25.30;97.70
47090;DHT22;32840;52.516;13.294;2023-07-16T00:33:43;25.30;97.60
47090;DHT22;32840;52.516;13.294;2023-07-16T00:36:29;25.30;97.40
47090;DHT22;32840;52.516;13.294;2023-07-16T00:39:14;25.40;97.50
47090;DHT22;32840;52.516;13.294;2023-07-16T00:41:59;25.40;97.60
47090;DHT22;32840;52.516;13.294;2023-07-16T00:44:44;25.20;97.70
47090;DHT22;32840;52.516;13.294;2023-07-16T00:47:30;25.20;98.00
47090;DHT22;32840;52.516;13.294;2023-07-16T00:50:14;25.20;97.90
47090;DHT22;32840;52.516;13.294;2023-07-16T00:53:01;25.20;97.50
47090;DHT22;32840;52.516;13.294;2023-07-16T00:55:47;25.30;98.20
47090;DHT22;32840;52.516;13.294;2023-07-16T00:58:32;25.10;98.70
47090;DHT22;32840;52.516;13.294;2023-07-16T01:01:17;25.00;99.00
47090;DHT22;32840;52.516;13.294;2023-07-16T01:04:02;24.90;99.40
47090;DHT22;32840;52.516;13.294;2023-07-16T01:06:51;24.90;99.60
47090;DHT22;32840;52.516;13.294;2023-07-16T01:09:40;24.90;99.70
47090;DHT22;32840;52.516;13.294;2023-07-16T01:12:27;24.90;99.90
47090;DHT22;32840;52.516;13.294;2023-07-16T01:15:12;24.90;99.90
47090;DHT22;32840;52.516;13.294;2023-07-16T01:17:57;24.90;99.20
47090;DHT22;32840;52.516;13.294;2023-07-16T01:20:42;24.90;99.50
47090;DHT22;32840;52.516;13.294;2023-07-16T01:29:46;24.90;99.90
47090;DHT22;32840;52.516;13.294;2023-07-16T01:32:36;24.80;99.90
47090;DHT22;32840;52.516;13.294;2023-07-16T01:35:23;24.80;99.90
47090;DHT22;32840;52.516;13.294;2023-07-16T01:38:09;24.80;99.90
47090;DHT22;32840;52.516;13.294;2023-07-16T01:40:54;24.80;99.90
47090;DHT22;32840;52.516;13.294;2023-07-16T01:43:39;24.80;99.90
47090;DHT22;32840;52.516;13.294;2023-07-16T01:46:26;24.80;99.90
47090;DHT22;32840;52.516;13.294;2023-07-16T01:49:14;24.70;99.90
47090;DHT22;32840;52.516;13.294;2023-07-16T01:52:01;24.60;99.90
47090;DHT22;32840;52.516;13.294;2023-07-16T01:54:47;24.60;99.90
47090;DHT22;32840;52.516;13.294;2023-07-16T01:57:34;24.50;99.90
47090;DHT22;32840;52.516;13.294;2023-07-16T02:00:19;24.50;99.90
47090;DHT22;32840;52.516;13.294;2023-07-16T02:03:05;24.50;99.90
47090;DHT22;32840;52.516;13.294;2023-07-16T02:05:51;24.40;99.90
47090;DHT22;32840;52.516;13.294;2023-07-16T02:08:35;24.40;99.90
47090;DHT22;32840;52.516;13.294;2023-07-16T02:11:20;24.40;99.90
47090;DHT22;32840;52.516;13.294;2023-07-16T02:14:05;24.40;99.90
47090;DHT22;32840;52.516;13.294;2023-07-16T02:16:51;24.30;99.90
47090;DHT22;32840;52.516;13.294;2023-07-16T02:19:36;24.30;99.90
47090;DHT22;32840;52.516;13.294;2023-07-16T02:22:21;24.30;99.90
47090;DHT22;32840;52.516;13.294;2023-07-16T02:25:07;24.30;99.90
47090;DHT22;32840;52.516;13.294;2023-07-16T02:27:52;24.30;99.90
47090;DHT22;32840;52.516;13.294;2023-07-16T02:30:37;24.20;99.90
47090;DHT22;32840;52.516;13.294;2023-07-16T02:33:24;24.20;99.90
47090;DHT22;32840;52.516;13.294;2023-07-16T02:36:09;24.00;99.90
47090;DHT22;32840;52.516;13.294;2023-07-16T02:38:55;23.80;99.90
47090;DHT22;32840;52.516;13.294;2023-07-16T02:41:40;23.90;99.90
47090;DHT22;32840;52.516;13.294;2023-07-16T02:44:25;23.70;99.90
47090;DHT22;32840;52.516;13.294;2023-07-16T02:47:10;23.70;99.90
47090;DHT22;32840;52.516;13.294;2023-07-16T02:49:55;23.70;99.90
47090;DHT22;32840;52.516;13.294;2023-07-16T02:52:40;23.60;99.90
47090;DHT22;32840;52.516;13.294;2023-07-16T02:55:25;23.60;99.90
47090;DHT22;32840;52.516;13.294;2023-07-16T02:58:12;23.70;99.90
47090;DHT22;32840;52.516;13.294;2023-07-16T03:00:57;23.50;99.90
47090;DHT22;32840;52.516;13.294;2023-07-16T03:03:42;23.60;99.90
47090;DHT22;32840;52.516;13.294;2023-07-16T03:06:27;23.70;99.90
47090;DHT22;32840;52.516;13.294;2023-07-16T03:09:12;23.60;99.90
47090;DHT22;32840;52.516;13.294;2023-07-16T03:11:57;23.60;99.90
47090;DHT22;32840;52.516;13.294;2023-07-16T03:14:42;23.60;99.90
47090;DHT22;32840;52.516;13.294;2023-07-16T03:17:27;23.70;99.90
47090;DHT22;32840;52.516;13.294;2023-07-16T03:20:12;23.60;99.90
47090;DHT22;32840;52.516;13.294;2023-07-16T03:23:03;23.50;99.90
47090;DHT22;32840;52.516;13.294;2023-07-16T03:25:49;23.50;99.90
47090;DHT22;32840;52.516;13.294;2023-07-16T03:28:33;23.40;99.90
47090;DHT22;32840;52.516;13.294;2023-07-16T03:31:19;23.40;99.90
47090;DHT22;32840;52.516;13.294;2023-07-16T03:34:06;23.40;99.90
47090;DHT22;32840;52.516;13.294;2023-07-16T03:36:51;23.30;99.90
47090;DHT22;32840;52.516;13.294;2023-07-16T03:39:37;23.20;99.90
47090;DHT22;32840;52.516;13.294;2023-07-16T03:42:22;23.20;99.90
47090;DHT22;32840;52.516;13.294;2023-07-16T03:45:12;23.20;99.90
47090;DHT22;32840;52.516;13.294;2023-07-16T03:47:57;23.30;99.90
47090;DHT22;32840;52.516;13.294;2023-07-16T03:50:42;23.40;99.90
47090;DHT22;32840;52.516;13.294;2023-07-16T03:53:27;23.30;99.90
47090;DHT22;32840;52.516;13.294;2023-07-16T03:56:12;23.10;99.90
47090;DHT22;32840;52.516;13.294;2023-07-16T03:58:57;23.10;99.90
47090;DHT22;32840;52.516;13.294;2023-07-16T04:01:42;23.00;99.90
47090;DHT22;32840;52.516;13.294;2023-07-16T04:04:27;22.90;99.90
47090;DHT22;32840;52.516;13.294;2023-07-16T04:07:12;23.00;99.90
47090;DHT22;32840;52.516;13.294;2023-07-16T04:09:58;23.10;99.90
47090;DHT22;32840;52.516;13.294;2023-07-16T04:12:42;23.10;99.90
47090;DHT22;32840;52.516;13.294;2023-07-16T04:15:28;23.00;99.90
47090;DHT22;32840;52.516;13.294;2023-07-16T04:18:13;22.90;99.90
47090;DHT22;32840;52.516;13.294;2023-07-16T04:21:00;22.90;99.90
47090;DHT22;32840;52.516;13.294;2023-07-16T04:23:45;23.20;99.90
47090;DHT22;32840;52.516;13.294;2023-07-16T04:26:32;23.10;99.90
47090;DHT22;32840;52.516;13.294;2023-07-16T04:29:18;23.20;99.90
47090;DHT22;32840;52.516;13.294;2023-07-16T04:32:03;23.10;99.90
47090;DHT22;32840;52.516;13.294;2023-07-16T04:34:50;23.10;99.90
47090;DHT22;32840;52.516;13.294;2023-07-16T04:37:35;23.00;99.90
47090;DHT22;32840;52.516;13.294;2023-07-16T04:40:20;23.10;99.90
47090;DHT22;32840;52.516;13.294;2023-07-16T04:43:05;23.00;99.90
47090;DHT22;32840;52.516;13.294;2023-07-16T04:45:50;22.90;99.90
47090;DHT22;32840;52.516;13.294;2023-07-16T04:48:36;22.90;99.90
47090;DHT22;32840;52.516;13.294;2023-07-16T04:51:22;23.00;99.90
47090;DHT22;32840;52.516;13.294;2023-07-16T04:54:07;23.10;99.90
47090;DHT22;32840;52.516;13.294;2023-07-16T04:56:52;23.10;99.90
47090;DHT22;32840;52.516;13.294;2023-07-16T04:59:37;23.20;99.90
47090;DHT22;32840;52.516;13.294;2023-07-16T05:02:23;23.10;99.90
47090;DHT22;32840;52.516;13.294;2023-07-16T05:05:09;23.10;99.90
47090;DHT22;32840;52.516;13.294;2023-07-16T05:07:57;23.20;99.90
47090;DHT22;32840;52.516;13.294;2023-07-16T05:10:42;23.10;99.90
47090;DHT22;32840;52.516;13.294;2023-07-16T05:13:27;23.20;99.90
47090;DHT22;32840;52.516;13.294;2023-07-16T05:16:12;23.10;99.90
47090;DHT22;32840;52.516;13.294;2023-07-16T05:18:58;23.30;99.90
47090;DHT22;32840;52.516;13.294;2023-07-16T05:21:46;23.30;99.90
47090;DHT22;32840;52.516;13.294;2023-07-16T05:24:34;23.40;99.90
47090;DHT22;32840;52.516;13.294;2023-07-16T05:27:19;23.50;99.90
47090;DHT22;32840;52.516;13.294;2023-07-16T05:30:32;23.60;99.90
47090;DHT22;32840;52.516;13.294;2023-07-16T05:33:21;23.50;99.90
47090;DHT22;32840;52.516;13.294;2023-07-16T05:36:13;23.60;99.90
47090;DHT22;32840;52.516;13.294;2023-07-16T05:39:16;23.70;99.90
47090;DHT22;32840;52.516;13.294;2023-07-16T05:42:07;23.70;99.90
47090;DHT22;32840;52.516;13.294;2023-07-16T05:44:52;23.80;99.90
47090;DHT22;32840;52.516;13.294;2023-07-16T05:47:39;23.80;99.90
47090;DHT22;32840;52.516;13.294;2023-07-16T05:50:23;23.70;99.90
47090;DHT22;32840;52.516;13.294;2023-07-16T05:53:08;23.60;99.90
47090;DHT22;32840;52.516;13.294;2023-07-16T05:56:14;23.50;99.90
47090;DHT22;32840;52.516;13.294;2023-07-16T05:58:59;23.40;99.90
47090;DHT22;32840;52.516;13.294;2023-07-16T06:01:44;23.40;99.90
47090;DHT22;32840;52.516;13.294;2023-07-16T06:04:30;23.40;99.90
47090;DHT22;32840;52.516;13.294;2023-07-16T06:07:15;23.40;99.90
47090;DHT22;32840;52.516;13.294;2023-07-16T06:10:02;23.40;99.90
47090;DHT22;32840;52.516;13.294;2023-07-16T06:12:47;23.40;99.90
47090;DHT22;32840;52.516;13.294;2023-07-16T06:15:33;23.30;99.90
47090;DHT22;32840;52.516;13.294;2023-07-16T06:18:19;23.40;99.90
47090;DHT22;32840;52.516;13.294;2023-07-16T06:21:04;23.40;99.90
47090;DHT22;32840;52.516;13.294;2023-07-16T06:23:52;23.50;99.90
47090;DHT22;32840;52.516;13.294;2023-07-16T06:26:39;23.40;99.90
47090;DHT22;32840;52.516;13.294;2023-07-16T06:29:23;23.50;99.90
47090;DHT22;32840;52.516;13.294;2023-07-16T06:32:10;23.60;99.90
47090;DHT22;32840;52.516;13.294;2023-07-16T06:34:55;23.60;99.90
47090;DHT22;32840;52.516;13.294;2023-07-16T06:37:42;23.60;99.90
47090;DHT22;32840;52.516;13.294;2023-07-16T06:40:28;23.60;99.90
47090;DHT22;32840;52.516;13.294;2023-07-16T06:43:18;23.60;99.90
47090;DHT22;32840;52.516;13.294;2023-07-16T06:46:05;23.50;99.90
47090;DHT22;32840;52.516;13.294;2023-07-16T06:48:50;23.50;99.90
47090;DHT22;32840;52.516;13.294;2023-07-16T06:51:36;23.60;99.90
47090;DHT22;32840;52.516;13.294;2023-07-16T06:54:25;23.70;99.90
47090;DHT22;32840;52.516;13.294;2023-07-16T06:57:10;23.90;99.90
47090;DHT22;32840;52.516;13.294;2023-07-16T06:59:55;23.90;99.90
47090;DHT22;32840;52.516;13.294;2023-07-16T07:02:43;24.10;99.90
47090;DHT22;32840;52.516;13.294;2023-07-16T07:05:28;24.30;99.90
47090;DHT22;32840;52.516;13.294;2023-07-16T07:08:16;24.50;99.90
47090;DHT22;32840;52.516;13.294;2023-07-16T07:11:04;24.60;99.90
47090;DHT22;32840;52.516;13.294;2023-07-16T07:13:51;24.80;99.90
47090;DHT22;32840;52.516;13.294;2023-07-16T07:16:35;25.00;99.90
47090;DHT22;32840;52.516;13.294;2023-07-16T07:19:20;25.10;99.90
47090;DHT22;32840;52.516;13.294;2023-07-16T07:22:05;25.10;99.90
47090;DHT22;32840;52.516;13.294;2023-07-16T07:24:50;25.10;99.90
47090;DHT22;32840;52.516;13.294;2023-07-16T07:27:37;25.30;99.90
47090;DHT22;32840;52.516;13.294;2023-07-16T07:30:21;25.40;99.90
47090;DHT22;32840;52.516;13.294;2023-07-16T07:33:06;25.50;99.90
47090;DHT22;32840;52.516;13.294;2023-07-16T07:35:54;25.60;99.90
47090;DHT22;32840;52.516;13.294;2023-07-16T07:38:40;25.60;99.90
47090;DHT22;32840;52.516;13.294;2023-07-16T07:41:25;25.60;99.90
47090;DHT22;32840;52.516;13.294;2023-07-16T07:44:12;25.60;99.90
47090;DHT22;32840;52.516;13.294;2023-07-16T07:46:57;25.80;99.90
47090;DHT22;32840;52.516;13.294;2023-07-16T07:49:42;26.00;99.90
47090;DHT22;32840;52.516;13.294;2023-07-16T07:52:29;26.10;99.90
47090;DHT22;32840;52.516;13.294;2023-07-16T07:55:17;26.20;99.90
47090;DHT22;32840;52.516;13.294;2023-07-16T07:58:03;26.40;99.90
47090;DHT22;32840;52.516;13.294;2023-07-16T08:00:48;26.20;99.90
47090;DHT22;32840;52.516;13.294;2023-07-16T08:03:34;25.90;99.90
47090;DHT22;32840;52.516;13.294;2023-07-16T08:06:19;25.60;99.90
47090;DHT22;32840;52.516;13.294;2023-07-16T08:09:05;25.50;99.90
47090;DHT22;32840;52.516;13.294;2023-07-16T08:11:51;25.60;99.90
47090;DHT22;32840;52.516;13.294;2023-07-16T08:14:35;25.80;99.90
47090;DHT22;32840;52.516;13.294;2023-07-16T08:17:21;25.80;99.90
47090;DHT22;32840;52.516;13.294;2023-07-16T08:20:08;25.80;99.90
47090;DHT22;32840;52.516;13.294;2023-07-16T08:22:56;26.30;99.90
47090;DHT22;32840;52.516;13.294;2023-07-16T08:25:45;26.80;99.90
47090;DHT22;32840;52.516;13.294;2023-07-16T08:28:30;27.10;99.90
47090;DHT22;32840;52.516;13.294;2023-07-16T08:31:21;27.50;97.50
47090;DHT22;32840;52.516;13.294;2023-07-16T08:34:09;27.60;95.20
47090;DHT22;32840;52.516;13.294;2023-07-16T08:36:55;27.70;96.00
47090;DHT22;32840;52.516;13.294;2023-07-16T08:39:41;27.90;94.20
47090;DHT22;32840;52.516;13.294;2023-07-16T08:42:31;27.70;93.90
47090;DHT22;32840;52.516;13.294;2023-07-16T08:45:16;27.90;93.00
47090;DHT22;32840;52.516;13.294;2023-07-16T08:48:02;28.20;92.10
47090;DHT22;32840;52.516;13.294;2023-07-16T08:50:48;28.40;90.90
47090;DHT22;32840;52.516;13.294;2023-07-16T08:53:33;28.40;90.40
47090;DHT22;32840;52.516;13.294;2023-07-16T08:56:20;28.20;90.80
47090;DHT22;32840;52.516;13.294;2023-07-16T08:59:04;28.10;88.90
47090;DHT22;32840;52.516;13.294;2023-07-16T09:01:50;27.60;87.80
47090;DHT22;32840;52.516;13.294;2023-07-16T09:04:35;27.10;89.60
47090;DHT22;32840;52.516;13.294;2023-07-16T09:07:22;27.00;90.60
47090;DHT22;32840;52.516;13.294;2023-07-16T09:10:08;27.40;91.00
47090;DHT22;32840;52.516;13.294;2023-07-16T09:12:58;27.80;89.40
47090;DHT22;32840;52.516;13.294;2023-07-16T09:15:43;28.00;85.70
47090;DHT22;32840;52.516;13.294;2023-07-16T09:18:30;27.90;84.10
47090;DHT22;32840;52.516;13.294;2023-07-16T09:21:16;27.40;85.40
47090;DHT22;32840;52.516;13.294;2023-07-16T09:24:06;27.10;85.90
47090;DHT22;32840;52.516;13.294;2023-07-16T09:26:54;27.10;86.10
47090;DHT22;32840;52.516;13.294;2023-07-16T09:29:47;27.40;84.90
47090;DHT22;32840;52.516;13.294;2023-07-16T09:32:36;27.50;83.80
47090;DHT22;32840;52.516;13.294;2023-07-16T09:35:27;27.70;85.30
47090;DHT22;32840;52.516;13.294;2023-07-16T09:38:13;27.90;82.10
47090;DHT22;32840;52.516;13.294;2023-07-16T09:40:59;27.80;80.10
47090;DHT22;32840;52.516;13.294;2023-07-16T09:43:56;27.90;79.70
47090;DHT22;32840;52.516;13.294;2023-07-16T09:46:41;28.40;78.20
47090;DHT22;32840;52.516;13.294;2023-07-16T09:49:30;28.30;77.20
47090;DHT22;32840;52.516;13.294;2023-07-16T09:52:18;28.20;77.80
47090;DHT22;32840;52.516;13.294;2023-07-16T09:55:09;28.60;76.70
47090;DHT22;32840;52.516;13.294;2023-07-16T09:57:56;28.70;77.20
47090;DHT22;32840;52.516;13.294;2023-07-16T10:00:44;29.00;72.50
47090;DHT22;32840;52.516;13.294;2023-07-16T10:03:30;28.70;72.10
47090;DHT22;32840;52.516;13.294;2023-07-16T10:06:16;28.50;73.70
47090;DHT22;32840;52.516;13.294;2023-07-16T10:09:01;28.60;74.30
47090;DHT22;32840;52.516;13.294;2023-07-16T10:11:48;28.70;75.30
47090;DHT22;32840;52.516;13.294;2023-07-16T10:14:39;28.70;73.60
47090;DHT22;32840;52.516;13.294;2023-07-16T10:17:25;28.60;73.80
47090;DHT22;32840;52.516;13.294;2023-07-16T10:20:12;28.80;72.80
47090;DHT22;32840;52.516;13.294;2023-07-16T10:22:57;28.90;73.40
47090;DHT22;32840;52.516;13.294;2023-07-16T10:26:00;29.00;72.40
47090;DHT22;32840;52.516;13.294;2023-07-16T10:28:45;28.90;70.50
47090;DHT22;32840;52.516;13.294;2023-07-16T10:31:36;28.80;72.10
47090;DHT22;32840;52.516;13.294;2023-07-16T10:34:24;28.90;72.10
47090;DHT22;32840;52.516;13.294;2023-07-16T10:37:10;29.00;71.90
47090;DHT22;32840;52.516;13.294;2023-07-16T10:39:58;28.90;72.10
47090;DHT22;32840;52.516;13.294;2023-07-16T10:42:44;28.90;72.90
47090;DHT22;32840;52.516;13.294;2023-07-16T10:45:31;29.10;71.70
47090;DHT22;32840;52.516;13.294;2023-07-16T10:48:17;29.10;71.70
47090;DHT22;32840;52.516;13.294;2023-07-16T10:51:02;29.20;71.30
47090;DHT22;32840;52.516;13.294;2023-07-16T10:53:49;29.20;69.60
47090;DHT22;32840;52.516;13.294;2023-07-16T10:56:39;29.10;71.30
47090;DHT22;32840;52.516;13.294;2023-07-16T10:59:24;29.10;69.90
47090;DHT22;32840;52.516;13.294;2023-07-16T11:02:16;29.10;68.40
47090;DHT22;32840;52.516;13.294;2023-07-16T11:05:02;29.10;70.60
47090;DHT22;32840;52.516;13.294;2023-07-16T11:07:49;29.10;67.30
47090;DHT22;32840;52.516;13.294;2023-07-16T11:10:36;28.90;69.00
47090;DHT22;32840;52.516;13.294;2023-07-16T11:13:26;28.70;70.10
47090;DHT22;32840;52.516;13.294;2023-07-16T11:16:11;28.60;72.10
47090;DHT22;32840;52.516;13.294;2023-07-16T11:18:56;28.60;70.40
47090;DHT22;32840;52.516;13.294;2023-07-16T11:21:41;28.70;70.60
47090;DHT22;32840;52.516;13.294;2023-07-16T11:24:27;28.70;70.90
47090;DHT22;32840;52.516;13.294;2023-07-16T11:27:25;28.70;71.10
47090;DHT22;32840;52.516;13.294;2023-07-16T11:30:12;28.60;71.10
47090;DHT22;32840;52.516;13.294;2023-07-16T11:32:58;28.60;71.60
47090;DHT22;32840;52.516;13.294;2023-07-16T11:35:47;28.60;72.30
47090;DHT22;32840;52.516;13.294;2023-07-16T11:38:37;28.70;70.40
47090;DHT22;32840;52.516;13.294;2023-07-16T11:41:25;28.80;71.40
47090;DHT22;32840;52.516;13.294;2023-07-16T11:44:13;28.80;67.60
47090;DHT22;32840;52.516;13.294;2023-07-16T11:46:59;28.90;68.20
47090;DHT22;32840;52.516;13.294;2023-07-16T11:49:44;29.00;67.50
47090;DHT22;32840;52.516;13.294;2023-07-16T11:52:30;29.10;68.90
47090;DHT22;32840;52.516;13.294;2023-07-16T11:55:17;29.00;66.00
47090;DHT22;32840;52.516;13.294;2023-07-16T11:58:01;28.90;64.80
47090;DHT22;32840;52.516;13.294;2023-07-16T12:00:48;28.90;65.10
47090;DHT22;32840;52.516;13.294;2023-07-16T12:03:33;28.80;68.60
47090;DHT22;32840;52.516;13.294;2023-07-16T12:06:18;28.80;64.80
47090;DHT22;32840;52.516;13.294;2023-07-16T12:09:03;28.70;67.10
47090;DHT22;32840;52.516;13.294;2023-07-16T12:11:51;28.80;62.90
47090;DHT22;32840;52.516;13.294;2023-07-16T12:14:36;28.90;60.40
47090;DHT22;32840;52.516;13.294;2023-07-16T12:17:21;28.90;61.10
47090;DHT22;32840;52.516;13.294;2023-07-16T12:20:08;28.90;62.10
47090;DHT22;32840;52.516;13.294;2023-07-16T12:23:11;28.90;59.60
47090;DHT22;32840;52.516;13.294;2023-07-16T12:26:04;28.90;64.70
47090;DHT22;32840;52.516;13.294;2023-07-16T12:29:09;29.00;62.00
47090;DHT22;32840;52.516;13.294;2023-07-16T12:32:09;28.90;60.90
47090;DHT22;32840;52.516;13.294;2023-07-16T12:38:17;28.70;53.90
47090;DHT22;32840;52.516;13.294;2023-07-16T12:45:49;28.80;56.60
47090;DHT22;32840;52.516;13.294;2023-07-16T12:48:45;28.60;55.60
47090;DHT22;32840;52.516;13.294;2023-07-16T12:55:42;28.60;59.30
47090;DHT22;32840;52.516;13.294;2023-07-16T12:59:01;28.70;59.20
47090;DHT22;32840;52.516;13.294;2023-07-16T13:04:54;28.90;58.40
47090;DHT22;32840;52.516;13.294;2023-07-16T13:11:24;28.90;60.80
47090;DHT22;32840;52.516;13.294;2023-07-16T13:14:13;28.90;59.20
47090;DHT22;32840;52.516;13.294;2023-07-16T13:17:02;28.70;60.10
47090;DHT22;32840;52.516;13.294;2023-07-16T13:19:51;28.80;60.30
47090;DHT22;32840;52.516;13.294;2023-07-16T13:22:39;28.80;58.90
47090;DHT22;32840;52.516;13.294;2023-07-16T13:25:26;28.80;58.60
47090;DHT22;32840;52.516;13.294;2023-07-16T13:28:13;28.70;62.00
47090;DHT22;32840;52.516;13.294;2023-07-16T13:30:58;28.50;59.10
47090;DHT22;32840;52.516;13.294;2023-07-16T13:33:43;28.50;55.60
47090;DHT22;32840;52.516;13.294;2023-07-16T13:36:28;28.50;61.70
47090;DHT22;32840;52.516;13.294;2023-07-16T13:39:36;28.50;62.60
47090;DHT22;32840;52.516;13.294;2023-07-16T13:42:22;28.40;55.50
47090;DHT22;32840;52.516;13.294;2023-07-16T13:45:34;28.40;55.60
47090;DHT22;32840;52.516;13.294;2023-07-16T13:48:25;28.40;56.70
47090;DHT22;32840;52.516;13.294;2023-07-16T13:54:48;28.60;56.00
47090;DHT22;32840;52.516;13.294;2023-07-16T13:57:33;28.60;54.90
47090;DHT22;32840;52.516;13.294;2023-07-16T14:00:18;28.60;55.10
47090;DHT22;32840;52.516;13.294;2023-07-16T14:03:03;28.60;54.50
47090;DHT22;32840;52.516;13.294;2023-07-16T14:05:48;28.60;54.80
47090;DHT22;32840;52.516;13.294;2023-07-16T14:08:34;28.60;55.90
47090;DHT22;32840;52.516;13.294;2023-07-16T14:11:21;28.60;54.20
47090;DHT22;32840;52.516;13.294;2023-07-16T14:14:08;28.60;56.50
47090;DHT22;32840;52.516;13.294;2023-07-16T14:16:53;28.40;52.30
47090;DHT22;32840;52.516;13.294;2023-07-16T14:19:38;28.30;54.50
47090;DHT22;32840;52.516;13.294;2023-07-16T14:22:23;28.10;54.80
47090;DHT22;32840;52.516;13.294;2023-07-16T14:25:14;28.00;53.90
47090;DHT22;32840;52.516;13.294;2023-07-16T14:28:02;28.20;55.20
47090;DHT22;32840;52.516;13.294;2023-07-16T14:30:48;28.20;54.30
47090;DHT22;32840;52.516;13.294;2023-07-16T14:33:33;28.30;53.40
47090;DHT22;32840;52.516;13.294;2023-07-16T14:36:21;28.30;52.80
47090;DHT22;32840;52.516;13.294;2023-07-16T14:39:07;28.20;53.10
47090;DHT22;32840;52.516;13.294;2023-07-16T14:41:52;28.20;53.50
47090;DHT22;32840;52.516;13.294;2023-07-16T14:44:40;28.10;53.30
47090;DHT22;32840;52.516;13.294;2023-07-16T14:47:27;28.10;54.60
47090;DHT22;32840;52.516;13.294;2023-07-16T14:50:24;28.10;55.90
47090;DHT22;32840;52.516;13.294;2023-07-16T14:53:10;28.30;55.00
47090;DHT22;32840;52.516;13.294;2023-07-16T14:56:00;28.20;56.60
47090;DHT22;32840;52.516;13.294;2023-07-16T14:58:46;28.20;54.80
47090;DHT22;32840;52.516;13.294;2023-07-16T15:01:37;28.10;53.30
47090;DHT22;32840;52.516;13.294;2023-07-16T15:04:21;28.10;54.50
47090;DHT22;32840;52.516;13.294;2023-07-16T15:07:06;28.10;53.40
47090;DHT22;32840;52.516;13.294;2023-07-16T15:09:51;28.20;54.70
47090;DHT22;32840;52.516;13.294;2023-07-16T15:12:39;28.10;51.90
47090;DHT22;32840;52.516;13.294;2023-07-16T15:15:25;28.00;53.70
47090;DHT22;32840;52.516;13.294;2023-07-16T15:18:11;28.00;53.10
47090;DHT22;32840;52.516;13.294;2023-07-16T15:21:01;28.00;53.00
47090;DHT22;32840;52.516;13.294;2023-07-16T15:23:45;28.00;52.20
47090;DHT22;32840;52.516;13.294;2023-07-16T15:26:31;28.20;52.10
47090;DHT22;32840;52.516;13.294;2023-07-16T15:29:16;28.30;52.10
47090;DHT22;32840;52.516;13.294;2023-07-16T15:32:01;28.30;51.10
47090;DHT22;32840;52.516;13.294;2023-07-16T15:34:46;28.30;51.80
47090;DHT22;32840;52.516;13.294;2023-07-16T15:37:31;28.30;55.00
47090;DHT22;32840;52.516;13.294;2023-07-16T15:40:17;28.30;50.60
47090;DHT22;32840;52.516;13.294;2023-07-16T15:43:02;28.30;52.10
47090;DHT22;32840;52.516;13.294;2023-07-16T15:45:48;28.20;52.10
47090;DHT22;32840;52.516;13.294;2023-07-16T15:48:33;28.10;53.00
47090;DHT22;32840;52.516;13.294;2023-07-16T15:51:18;28.00;53.70
47090;DHT22;32840;52.516;13.294;2023-07-16T15:54:07;27.90;53.70
47090;DHT22;32840;52.516;13.294;2023-07-16T15:56:52;27.90;53.70
47090;DHT22;32840;52.516;13.294;2023-07-16T15:59:38;27.80;51.00
47090;DHT22;32840;52.516;13.294;2023-07-16T16:02:24;27.90;51.20
47090;DHT22;32840;52.516;13.294;2023-07-16T16:05:09;28.00;53.00
47090;DHT22;32840;52.516;13.294;2023-07-16T16:08:11;28.00;52.30
47090;DHT22;32840;52.516;13.294;2023-07-16T16:11:12;28.00;50.80
47090;DHT22;32840;52.516;13.294;2023-07-16T16:14:30;27.90;52.10
47090;DHT22;32840;52.516;13.294;2023-07-16T16:17:16;27.90;52.90
47090;DHT22;32840;52.516;13.294;2023-07-16T16:20:03;27.80;51.00
47090;DHT22;32840;52.516;13.294;2023-07-16T16:22:52;27.80;52.90
47090;DHT22;32840;52.516;13.294;2023-07-16T16:25:40;27.90;51.40
47090;DHT22;32840;52.516;13.294;2023-07-16T16:28:24;28.00;52.60
47090;DHT22;32840;52.516;13.294;2023-07-16T16:31:22;28.00;51.40
47090;DHT22;32840;52.516;13.294;2023-07-16T16:34:13;28.00;53.80
47090;DHT22;32840;52.516;13.294;2023-07-16T16:37:03;27.90;53.50
47090;DHT22;32840;52.516;13.294;2023-07-16T16:39:50;27.80;51.80
47090;DHT22;32840;52.516;13.294;2023-07-16T16:42:36;27.70;51.70
47090;DHT22;32840;52.516;13.294;2023-07-16T16:45:22;27.60;51.20
47090;DHT22;32840;52.516;13.294;2023-07-16T16:48:09;27.60;51.10
47090;DHT22;32840;52.516;13.294;2023-07-16T16:51:19;27.60;50.90
47090;DHT22;32840;52.516;13.294;2023-07-16T16:54:04;27.50;51.60
47090;DHT22;32840;52.516;13.294;2023-07-16T16:56:49;27.50;53.60
47090;DHT22;32840;52.516;13.294;2023-07-16T16:59:34;27.40;56.00
47090;DHT22;32840;52.516;13.294;2023-07-16T17:02:20;27.30;54.90
47090;DHT22;32840;52.516;13.294;2023-07-16T17:05:06;27.30;54.40
47090;DHT22;32840;52.516;13.294;2023-07-16T17:07:52;27.30;55.40
47090;DHT22;32840;52.516;13.294;2023-07-16T17:10:37;27.30;54.30
47090;DHT22;32840;52.516;13.294;2023-07-16T17:13:25;27.20;56.70
47090;DHT22;32840;52.516;13.294;2023-07-16T17:16:10;27.20;52.70
47090;DHT22;32840;52.516;13.294;2023-07-16T17:18:55;27.30;54.60
47090;DHT22;32840;52.516;13.294;2023-07-16T17:21:40;27.30;53.80
47090;DHT22;32840;52.516;13.294;2023-07-16T17:24:25;27.30;55.30
47090;DHT22;32840;52.516;13.294;2023-07-16T17:27:11;27.30;57.00
47090;DHT22;32840;52.516;13.294;2023-07-16T17:30:01;27.20;53.90
47090;DHT22;32840;52.516;13.294;2023-07-16T17:32:52;27.20;51.80
47090;DHT22;32840;52.516;13.294;2023-07-16T17:36:01;27.10;53.10
47090;DHT22;32840;52.516;13.294;2023-07-16T17:54:21;26.90;50.50
47090;DHT22;32840;52.516;13.294;2023-07-16T18:01:14;26.80;53.40
47090;DHT22;32840;52.516;13.294;2023-07-16T18:07:45;26.70;53.60
47090;DHT22;32840;52.516;13.294;2023-07-16T18:10:29;26.80;53.90